Kenton, Oklahoma
Current Conditions -  °F | °C
As of 10:55 PM on Friday 28 Nov 2014 (Local Time) from KCAO Reporting Station
Clear Clear  
Wind Chill: 59°   Ceiling: Unl
Heat Index: 59°   Visibility: 10mi
Dew Point:   Wind: 18mph
Humidity: 13%   Direction: 250°WSW
Pressure: 29.86"   Gusts: NA
Location:  36.9°N, 102.96°W
Report Text: KCAO 290455Z AUTO 25016KT 10SM CLR 15/M14 A2986 RMK AO2 SLP061 T01501139
Loading
Personal Weather Stations






























Interactive Weather Map New forecast layout! Learn more

10-Day Weather Forecast

Advertisements
Track Severe Weather on mobile